Time;durP1;ratioP1;P1;durP2;ratioP2;P2;SDS_P1;SDS_P2;PMS_P1;PMS_P2;Temp;Humidity;BMP_temperature;BMP_pressure;BME280_temperature;BME280_humidity;BME280_pressure;Samples;Min_cycle;Max_cycle;Signal;HPM_P1;HPM_P2
2021/12/18 00:01:45;;;;;;;13.57;9.07;;;;;;;3.43;100.00;99832.97;5032101;28;20287;-61
2021/12/18 00:04:14;;;;;;;12.33;8.47;;;;;;;3.49;100.00;99831.31;5031795;28;20288;-61
2021/12/18 00:06:41;;;;;;;13.43;9.07;;;;;;;3.53;100.00;99840.72;5031846;28;20289;-60
2021/12/18 00:09:08;;;;;;;12.73;8.77;;;;;;;3.54;100.00;99837.28;5032036;28;20211;-61
2021/12/18 00:11:35;;;;;;;10.60;9.17;;;;;;;3.62;100.00;99850.16;5031788;28;20670;-61
2021/12/18 00:14:02;;;;;;;12.63;9.07;;;;;;;3.54;100.00;99850.13;5031661;28;20207;-61
2021/12/18 00:16:29;;;;;;;11.27;8.17;;;;;;;3.43;100.00;99823.56;5031857;28;20287;-61
2021/12/18 00:18:57;;;;;;;14.60;9.57;;;;;;;3.59;100.00;99845.03;5031758;28;20292;-60
2021/12/18 00:21:26;;;;;;;12.13;9.27;;;;;;;3.64;100.00;99843.31;5031713;28;20196;-60
2021/12/18 00:23:54;;;;;;;11.73;9.57;;;;;;;3.68;100.00;99845.06;5031518;28;20563;-60
2021/12/18 00:26:21;;;;;;;11.57;9.70;;;;;;;3.67;100.00;99848.47;5031479;28;20225;-61
2021/12/18 00:28:48;;;;;;;11.77;8.63;;;;;;;3.67;100.00;99845.03;5031515;28;20201;-59
2021/12/18 00:31:15;;;;;;;13.37;8.93;;;;;;;3.73;100.00;99845.06;5031621;28;20690;-61
2021/12/18 00:33:42;;;;;;;11.17;8.63;;;;;;;3.77;100.00;99841.66;5031794;28;20646;-61
2021/12/18 00:36:09;;;;;;;16.30;9.70;;;;;;;3.74;100.00;99845.06;5031515;28;20284;-62
2021/12/18 00:38:39;;;;;;;13.33;9.67;;;;;;;3.65;100.00;99815.09;5031321;28;20204;-61
2021/12/18 00:41:34;;;;;;;16.10;10.73;;;;;;;3.61;100.00;99818.50;5031275;28;20201;-60
2021/12/18 00:44:04;;;;;;;18.00;10.90;;;;;;;3.73;100.00;99847.63;5031241;28;20200;-62
2021/12/18 00:46:33;;;;;;;14.87;10.10;;;;;;;3.66;100.00;99846.75;5031144;28;20225;-62
2021/12/18 00:49:01;;;;;;;13.63;9.70;;;;;;;3.67;100.00;99850.19;5031018;28;20204;-62
2021/12/18 00:51:28;;;;;;;13.27;9.93;;;;;;;3.57;100.00;99857.00;5031456;28;20208;-61
2021/12/18 00:53:56;;;;;;;16.73;10.37;;;;;;;3.51;100.00;99851.81;5031365;28;20692;-61
2021/12/18 00:56:24;;;;;;;19.37;11.73;;;;;;;3.40;100.00;99853.47;5030956;28;20286;-60
2021/12/18 00:58:52;;;;;;;17.80;11.80;;;;;;;3.24;100.00;99843.13;5031093;28;20754;-60
2021/12/18 01:01:21;;;;;;;17.70;9.93;;;;;;;3.17;100.00;99809.72;5030769;28;20371;-62
2021/12/18 01:03:49;;;;;;;13.80;10.47;;;;;;;3.42;100.00;99837.22;5030610;28;20240;-62
2021/12/18 01:06:16;;;;;;;14.83;10.03;;;;;;;3.42;100.00;99839.81;5031137;28;20727;-61
2021/12/18 01:08:43;;;;;;;14.73;10.33;;;;;;;3.51;100.00;99824.44;5030988;28;20204;-62
2021/12/18 01:11:31;;;;;;;12.60;9.57;;;;;;;3.45;100.00;99832.13;5030922;28;20255;-62
2021/12/18 01:14:19;;;;;;;12.17;9.87;;;;;;;3.42;100.00;99821.84;5030707;28;20379;-62
2021/12/18 01:16:55;;;;;;;14.83;10.33;;;;;;;3.46;100.00;99823.59;5030746;28;20280;-60
2021/12/18 01:24:52;;;;;;;13.10;9.40;;;;;;;3.59;100.00;99830.50;5030569;28;20224;-62
2021/12/18 01:27:21;;;;;;;16.50;10.57;;;;;;;3.49;100.00;99813.34;5030450;28;20231;-62
2021/12/18 01:29:48;;;;;;;16.93;11.53;;;;;;;3.41;100.00;99811.56;5030580;28;20210;-61
2021/12/18 01:32:16;;;;;;;17.47;12.43;;;;;;;3.45;100.00;99827.00;5030663;28;20663;-61
2021/12/18 01:34:43;;;;;;;16.40;11.63;;;;;;;3.42;100.00;99829.53;5030348;28;20287;-61
2021/12/18 01:37:10;;;;;;;13.70;10.87;;;;;;;3.20;100.00;99802.06;5030505;28;20286;-61
2021/12/18 01:39:37;;;;;;;13.43;10.57;;;;;;;3.37;100.00;99826.09;5030271;28;20295;-61
2021/12/18 01:42:31;;;;;;;14.30;10.20;;;;;;;3.43;100.00;99831.25;5030298;28;20231;-61
2021/12/18 01:45:08;;;;;;;14.40;10.23;;;;;;;3.26;100.00;99830.31;5029906;28;20269;-60
2021/12/18 01:53:04;;;;;;;10.97;8.30;;;;;;;3.13;100.00;99824.25;5030103;28;20207;-61
2021/12/18 01:55:33;;;;;;;11.87;8.60;;;;;;;3.09;100.00;99822.50;5030019;28;20295;-62
2021/12/18 01:58:00;;;;;;;10.10;8.30;;;;;;;3.12;100.00;99814.84;5030004;28;20289;-62
2021/12/18 02:00:31;;;;;;;12.10;9.37;;;;;;;3.17;100.00;99814.84;5030231;28;20747;-61
2021/12/18 02:02:59;;;;;;;12.23;9.73;;;;;;;3.15;100.00;99816.59;5029983;28;20728;-60
2021/12/18 02:05:26;;;;;;;12.43;9.40;;;;;;;3.15;100.00;99816.59;5030024;28;20618;-61
2021/12/18 02:07:54;;;;;;;16.17;11.00;;;;;;;3.20;100.00;99818.31;5029905;28;20212;-61
2021/12/18 02:10:23;;;;;;;14.93;10.77;;;;;;;3.17;100.00;99812.28;5029879;28;20287;-61
2021/12/18 02:12:58;;;;;;;15.97;11.27;;;;;;;3.15;100.00;99801.19;5030048;28;20211;-61
2021/12/18 02:20:59;;;;;;;17.93;11.63;;;;;;;3.06;100.00;99780.59;5030141;28;20676;-62
2021/12/18 02:23:26;;;;;;;15.33;11.10;;;;;;;3.16;100.00;99810.59;5029951;28;20200;-62
2021/12/18 02:25:54;;;;;;;16.80;11.93;;;;;;;3.25;100.00;99814.06;5029714;28;20272;-61
2021/12/18 02:28:24;;;;;;;18.63;11.90;;;;;;;3.27;100.00;99806.38;5029916;28;20545;-61
2021/12/18 02:30:53;;;;;;;21.47;13.57;;;;;;;3.21;100.00;99791.81;5032411;28;20234;-61
2021/12/18 02:33:20;;;;;;;19.47;13.10;;;;;;;3.29;100.00;99804.66;5033760;28;20732;-61
2021/12/18 02:35:49;;;;;;;19.57;13.67;;;;;;;3.34;100.00;99803.00;5033635;28;20287;-61
2021/12/18 02:38:23;;;;;;;21.43;13.13;;;;;;;3.31;100.00;99807.25;5033682;28;20210;-61
2021/12/18 02:41:06;;;;;;;19.63;13.93;;;;;;;3.13;100.00;99793.50;5033599;28;20258;-61
2021/12/18 02:43:35;;;;;;;21.57;13.40;;;;;;;3.24;100.00;99801.22;5033546;28;20200;-60
2021/12/18 02:46:06;;;;;;;23.37;14.40;;;;;;;3.27;100.00;99811.53;5033544;28;20730;-60
2021/12/18 02:48:35;;;;;;;20.30;13.83;;;;;;;3.24;100.00;99808.94;5033625;28;20592;-60
2021/12/18 02:51:04;;;;;;;17.23;12.70;;;;;;;3.31;100.00;99813.22;5033417;28;20194;-60
2021/12/18 02:53:33;;;;;;;20.17;12.93;;;;;;;3.36;100.00;99803.88;5033388;28;20201;-59
2021/12/18 02:56:03;;;;;;;17.97;12.90;;;;;;;3.38;100.00;99812.44;5033155;28;20197;-59
2021/12/18 02:58:31;;;;;;;17.23;13.00;;;;;;;3.37;100.00;99809.84;5033529;28;20208;-62
2021/12/18 03:01:00;;;;;;;17.97;12.63;;;;;;;3.32;100.00;99811.53;5033296;28;20235;-61
2021/12/18 03:03:31;;;;;;;19.67;12.67;;;;;;;3.23;100.00;99813.19;5032951;28;20324;-60
2021/12/18 03:06:14;;;;;;;17.87;12.27;;;;;;;3.28;100.00;99802.94;5032916;28;20517;-58
2021/12/18 03:08:50;;;;;;;20.53;13.47;;;;;;;3.30;100.00;99806.38;5032886;28;20693;-61
2021/12/18 03:25:10;;;;;;;14.40;10.90;;;;;;;3.46;100.00;99818.44;5012322;28;20204;-59
2021/12/18 03:27:38;;;;;;;14.03;11.03;;;;;;;3.54;100.00;99826.16;5033181;28;20576;-60
2021/12/18 03:30:07;;;;;;;16.23;11.57;;;;;;;3.59;100.00;99821.94;5032721;28;20239;-60
2021/12/18 03:32:34;;;;;;;13.37;10.20;;;;;;;3.49;100.00;99803.06;5032707;28;20200;-61
2021/12/18 03:35:01;;;;;;;15.43;11.10;;;;;;;3.57;100.00;99821.91;5032718;28;20252;-61
2021/12/18 03:37:28;;;;;;;16.83;11.90;;;;;;;3.58;100.00;99828.78;5032580;28;20283;-62
2021/12/18 03:39:55;;;;;;;17.13;11.17;;;;;;;3.49;100.00;99810.78;5032542;28;20256;-62
2021/12/18 03:42:24;;;;;;;18.90;11.60;;;;;;;3.49;100.00;99822.75;5031636;28;20200;-61
2021/12/18 03:44:50;;;;;;;19.83;12.03;;;;;;;3.44;100.00;99827.84;5032578;28;20685;-60
2021/12/18 03:47:18;;;;;;;16.37;11.87;;;;;;;3.51;100.00;99823.59;5032345;28;20231;-60
2021/12/18 03:49:44;;;;;;;17.50;12.33;;;;;;;3.49;100.00;99826.16;5032445;28;20193;-61
2021/12/18 03:52:12;;;;;;;18.87;12.00;;;;;;;3.50;100.00;99838.13;5032314;28;20198;-60
2021/12/18 03:54:39;;;;;;;15.47;11.33;;;;;;;3.53;100.00;99834.72;5032121;28;20205;-60
2021/12/18 03:57:06;;;;;;;15.50;11.37;;;;;;;3.40;100.00;99818.41;5032019;28;20196;-60
2021/12/18 03:59:34;;;;;;;17.50;11.97;;;;;;;3.38;100.00;99845.78;5032050;28;20209;-61
2021/12/18 04:02:02;;;;;;;19.73;12.17;;;;;;;3.26;100.00;99849.13;5031864;28;20207;-61
2021/12/18 04:04:29;;;;;;;16.63;11.30;;;;;;;3.17;100.00;99845.63;5032316;28;20707;-61
2021/12/18 04:06:56;;;;;;;17.63;12.23;;;;;;;3.04;100.00;99839.59;5032022;28;20307;-62
2021/12/18 04:09:23;;;;;;;15.53;11.13;;;;;;;2.96;100.00;99836.09;5032185;28;20208;-61
2021/12/18 04:11:50;;;;;;;21.87;12.47;;;;;;;2.99;100.00;99842.97;5031819;28;20202;-62
2021/12/18 04:14:17;;;;;;;18.67;12.40;;;;;;;3.05;100.00;99845.59;5032108;28;20600;-61
2021/12/18 04:16:46;;;;;;;17.20;12.70;;;;;;;2.85;100.00;99802.69;5032020;28;20280;-62
2021/12/18 04:19:13;;;;;;;22.17;12.97;;;;;;;3.18;100.00;99847.34;5031841;28;20196;-61
2021/12/18 04:21:40;;;;;;;19.97;12.70;;;;;;;3.15;100.00;99852.50;5031588;28;20204;-60
2021/12/18 04:24:08;;;;;;;18.97;12.23;;;;;;;3.17;100.00;99845.63;5031592;28;20212;-62
2021/12/18 04:26:36;;;;;;;20.63;12.97;;;;;;;3.22;100.00;99855.09;5031432;28;20234;-62
2021/12/18 04:29:05;;;;;;;19.50;12.30;;;;;;;3.22;100.00;99859.34;5031650;28;20707;-60
2021/12/18 04:31:32;;;;;;;18.30;12.27;;;;;;;3.22;100.00;99857.66;5031461;28;20257;-61
2021/12/18 04:34:00;;;;;;;18.67;12.00;;;;;;;3.16;100.00;99834.50;5031636;28;20206;-61
2021/12/18 04:36:27;;;;;;;18.40;11.83;;;;;;;3.32;100.00;99862.84;5031675;28;20210;-61
2021/12/18 04:38:54;;;;;;;15.13;11.47;;;;;;;3.24;100.00;99868.78;5031417;28;20201;-61
2021/12/18 04:41:23;;;;;;;16.27;11.60;;;;;;;3.19;100.00;99865.31;5031268;28;20206;-61
2021/12/18 04:43:52;;;;;;;14.53;10.97;;;;;;;3.13;100.00;99870.44;5031210;28;20204;-61
2021/12/18 04:46:19;;;;;;;13.93;10.47;;;;;;;2.96;100.00;99878.81;5031261;28;20222;-60
2021/12/18 04:48:46;;;;;;;14.43;9.37;;;;;;;2.96;100.00;99876.25;5031013;28;20211;-60
2021/12/18 04:51:14;;;;;;;19.63;9.60;;;;;;;2.78;100.00;99882.97;5030824;28;20218;-61
2021/12/18 04:53:41;;;;;;;16.17;10.30;;;;;;;2.43;100.00;99866.44;5030408;28;20200;-61
2021/12/18 04:56:08;;;;;;;16.20;10.50;;;;;;;2.60;100.00;99893.03;5030497;28;20200;-59
2021/12/18 04:58:35;;;;;;;18.97;11.00;;;;;;;2.76;100.00;99883.81;5029622;28;20691;-60
2021/12/18 05:01:02;;;;;;;14.40;10.20;;;;;;;2.77;100.00;99891.50;5030377;28;20207;-62
2021/12/18 05:03:30;;;;;;;15.83;10.77;;;;;;;2.80;100.00;99886.41;5030299;28;20286;-62
2021/12/18 05:05:59;;;;;;;18.37;11.30;;;;;;;2.91;100.00;99899.31;5029857;28;20310;-62
2021/12/18 05:08:27;;;;;;;16.23;11.17;;;;;;;2.93;100.00;99913.84;5030785;28;20194;-62
2021/12/18 05:10:54;;;;;;;18.37;12.03;;;;;;;3.00;100.00;99909.66;5017037;28;20322;-61
2021/12/18 05:13:21;;;;;;;16.67;12.00;;;;;;;3.06;100.00;99913.94;5010759;28;20234;-60
2021/12/18 05:15:48;;;;;;;18.80;12.60;;;;;;;3.01;100.00;99911.38;5010218;28;20224;-61
2021/12/18 05:18:15;;;;;;;19.00;12.10;;;;;;;3.02;100.00;99918.22;5010647;28;20225;-62
2021/12/18 05:20:42;;;;;;;17.00;12.00;;;;;;;2.87;100.00;99893.31;5010850;28;20249;-62
2021/12/18 05:23:09;;;;;;;19.93;11.93;;;;;;;3.01;100.00;99931.88;5010497;28;20234;-62
2021/12/18 05:25:37;;;;;;;18.20;12.90;;;;;;;2.90;100.00;99941.19;5010789;28;20272;-60
2021/12/18 05:28:05;;;;;;;19.27;12.20;;;;;;;2.88;100.00;99946.28;5010783;28;20222;-61
2021/12/18 05:30:32;;;;;;;20.50;13.43;;;;;;;2.86;100.00;99953.09;5010138;28;20703;-61
2021/12/18 05:32:59;;;;;;;25.67;15.60;;;;;;;2.88;100.00;99956.53;5044950;28;20318;-62
2021/12/18 05:35:26;;;;;;;29.87;18.50;;;;;;;2.93;100.00;99965.13;5049957;28;20226;-61
2021/12/18 05:37:54;;;;;;;24.53;15.57;;;;;;;3.03;100.00;99962.66;5049916;28;20256;-62
2021/12/18 05:40:22;;;;;;;20.20;13.33;;;;;;;3.12;100.00;99970.44;5040554;28;20340;-62
2021/12/18 05:42:52;;;;;;;18.67;12.13;;;;;;;3.16;100.00;99972.19;5029649;28;20305;-61
2021/12/18 05:45:19;;;;;;;20.83;12.70;;;;;;;3.23;100.00;99976.50;5028763;28;20255;-61
2021/12/18 05:47:47;;;;;;;16.33;11.83;;;;;;;3.11;100.00;99976.41;5030041;28;20230;-62
2021/12/18 05:50:17;;;;;;;17.43;11.60;;;;;;;2.96;100.00;99972.00;5029886;28;20231;-60
2021/12/18 05:52:45;;;;;;;22.23;13.07;;;;;;;2.93;100.00;99979.69;5029824;28;20258;-60
2021/12/18 05:55:13;;;;;;;19.57;13.27;;;;;;;2.95;100.00;99977.09;5029617;28;20252;-60
2021/12/18 05:57:40;;;;;;;21.37;12.70;;;;;;;3.00;100.00;99960.06;5029341;28;20234;-60
2021/12/18 06:00:11;;;;;;;20.83;13.13;;;;;;;3.08;100.00;99960.97;5029332;28;20227;-61
2021/12/18 06:02:38;;;;;;;19.03;13.50;;;;;;;3.18;100.00;99973.03;5028903;28;20321;-62
2021/12/18 06:05:07;;;;;;;21.50;12.97;;;;;;;3.22;100.00;99972.22;5028640;28;20328;-60
2021/12/18 06:07:43;;;;;;;22.17;12.77;;;;;;;3.28;100.00;99960.28;5029281;28;20236;-61
2021/12/18 06:10:10;;;;;;;19.70;13.90;;;;;;;3.44;100.00;99968.97;5028955;28;20228;-60
2021/12/18 06:12:37;;;;;;;21.37;14.20;;;;;;;3.59;100.00;99966.50;5029970;28;20250;-60
2021/12/18 06:15:05;;;;;;;21.70;13.67;;;;;;;3.70;100.00;99970.84;5029038;28;20234;-61
2021/12/18 06:17:33;;;;;;;20.83;14.43;;;;;;;3.81;100.00;99971.78;5027890;28;20224;-59
2021/12/18 06:20:00;;;;;;;21.17;13.90;;;;;;;3.85;100.00;99982.06;5026750;28;20704;-61
2021/12/18 06:22:27;;;;;;;21.07;14.47;;;;;;;3.90;100.00;99989.78;5028005;28;20219;-61
2021/12/18 06:24:54;;;;;;;20.57;14.17;;;;;;;3.99;100.00;100000.13;5027246;28;20221;-61
2021/12/18 06:27:21;;;;;;;20.97;14.23;;;;;;;4.11;100.00;100005.31;5027757;28;20224;-61
2021/12/18 06:29:49;;;;;;;18.03;12.63;;;;;;;4.24;100.00;100001.97;5026390;28;20228;-60
2021/12/18 06:32:16;;;;;;;23.57;13.70;;;;;;;4.24;100.00;100007.09;5027895;28;20312;-59
2021/12/18 06:34:44;;;;;;;18.70;13.40;;;;;;;4.32;100.00;99999.41;5026956;28;20224;-61
2021/12/18 06:37:11;;;;;;;16.90;12.20;;;;;;;4.32;100.00;100002.84;5027295;28;20686;-60
2021/12/18 06:39:38;;;;;;;18.33;12.27;;;;;;;4.38;100.00;100005.44;5028090;28;20275;-60
2021/12/18 06:42:05;;;;;;;17.17;11.93;;;;;;;4.52;100.00;100014.91;5028328;28;20213;-61
2021/12/18 06:44:32;;;;;;;23.90;15.43;;;;;;;4.56;100.00;100021.78;5026870;28;20228;-56
2021/12/18 06:46:59;;;;;;;16.60;11.63;;;;;;;4.63;100.00;100024.38;5027985;28;20221;-55
2021/12/18 06:49:26;;;;;;;14.30;10.70;;;;;;;4.53;100.00;100019.19;5029248;28;20220;-55
2021/12/18 06:51:55;;;;;;;16.27;11.57;;;;;;;4.45;100.00;100029.47;5028801;28;20695;-56
2021/12/18 06:54:22;;;;;;;17.90;11.47;;;;;;;4.37;100.00;100021.72;5029314;28;20278;-56
2021/12/18 06:56:49;;;;;;;18.67;11.30;;;;;;;4.33;100.00;100025.13;5029068;28;20244;-56
2021/12/18 06:59:16;;;;;;;23.30;11.27;;;;;;;4.38;100.00;100038.88;5029264;28;20682;-56
2021/12/18 07:01:44;;;;;;;19.63;11.27;;;;;;;4.42;100.00;100042.28;5031057;28;20232;-57
2021/12/18 07:04:11;;;;;;;13.67;10.70;;;;;;;4.35;100.00;100036.28;5038227;28;20269;-56
2021/12/18 07:06:38;;;;;;;17.07;11.13;;;;;;;4.35;100.00;100036.28;5033364;28;20243;-57
2021/12/18 07:09:07;;;;;;;19.53;12.20;;;;;;;4.28;100.00;100036.25;5031687;28;20217;-57
2021/12/18 07:11:34;;;;;;;14.63;10.43;;;;;;;4.30;100.00;100039.66;5031158;28;20303;-64
2021/12/18 07:14:01;;;;;;;17.07;10.27;;;;;;;4.22;100.00;100033.63;5030489;28;20312;-65
2021/12/18 07:16:28;;;;;;;20.80;11.70;;;;;;;4.28;100.00;100038.81;5034858;28;20251;-65
2021/12/18 07:18:55;;;;;;;23.50;12.20;;;;;;;4.33;100.00;100037.09;5037807;28;20224;-64
2021/12/18 07:21:21;;;;;;;24.40;14.47;;;;;;;4.33;100.00;100034.53;5034467;28;20216;-65
2021/12/18 07:23:49;;;;;;;24.60;13.60;;;;;;;4.40;100.00;100043.16;5031808;28;20227;-65
2021/12/18 07:26:17;;;;;;;28.77;14.13;;;;;;;4.45;100.00;100046.59;5041786;28;20224;-64
2021/12/18 07:28:44;;;;;;;20.07;11.50;;;;;;;4.63;100.00;100044.06;5042261;28;20257;-64
2021/12/18 07:31:11;;;;;;;19.00;12.00;;;;;;;4.53;100.00;100045.75;5042488;28;20364;-64
2021/12/18 07:33:41;;;;;;;17.37;12.23;;;;;;;4.66;100.00;100059.53;5040422;28;20235;-64
2021/12/18 07:36:08;;;;;;;16.70;11.17;;;;;;;4.70;100.00;100063.84;5038246;28;20312;-62
2021/12/18 07:38:36;;;;;;;19.40;11.80;;;;;;;4.62;100.00;100061.25;5040967;28;20304;-64
2021/12/18 07:41:03;;;;;;;35.00;13.37;;;;;;;4.56;100.00;100075.75;5041597;28;20295;-63
2021/12/18 07:43:31;;;;;;;21.97;10.87;;;;;;;4.56;100.00;100084.34;5036234;28;20322;-62
2021/12/18 07:45:58;;;;;;;17.40;12.20;;;;;;;4.48;100.00;100085.16;5036420;28;20224;-62
2021/12/18 07:48:25;;;;;;;21.40;12.43;;;;;;;4.45;100.00;100085.13;5039550;28;20227;-59
2021/12/18 07:50:52;;;;;;;23.80;11.90;;;;;;;4.41;100.00;100091.09;5035645;28;20238;-58
2021/12/18 07:53:19;;;;;;;21.97;11.50;;;;;;;4.31;100.00;100093.63;5031987;28;20308;-58
2021/12/18 07:55:46;;;;;;;15.93;12.07;;;;;;;4.27;100.00;100094.47;5032165;28;20221;-58
2021/12/18 07:58:13;;;;;;;17.23;12.03;;;;;;;4.41;100.00;100098.81;5031232;28;20739;-59
2021/12/18 08:00:42;;;;;;;18.70;11.00;;;;;;;4.29;100.00;100087.63;5031269;28;20224;-58
2021/12/18 08:03:08;;;;;;;14.83;10.67;;;;;;;4.38;100.00;100103.13;5031024;28;20229;-58
2021/12/18 08:05:35;;;;;;;16.90;11.47;;;;;;;4.45;100.00;100109.13;5031152;28;20227;-58
2021/12/18 08:08:03;;;;;;;14.03;10.80;;;;;;;4.40;100.00;100109.97;5028129;28;20611;-58
2021/12/18 08:10:30;;;;;;;16.47;11.30;;;;;;;4.61;100.00;100115.22;5030792;28;20308;-58
2021/12/18 08:12:57;;;;;;;15.60;11.90;;;;;;;4.74;100.00;100115.25;5030676;28;20217;-62
2021/12/18 08:15:24;;;;;;;16.70;11.53;;;;;;;4.94;100.00;100120.50;5029387;28;20264;-62
2021/12/18 08:17:52;;;;;;;16.83;12.03;;;;;;;4.98;100.00;100129.06;5029326;28;20621;-62
2021/12/18 08:20:19;;;;;;;14.87;10.97;;;;;;;5.04;100.00;100131.69;5030641;28;20300;-61
2021/12/18 08:22:46;;;;;;;56.97;14.20;;;;;;;4.91;100.00;100141.06;5030400;28;20218;-61
2021/12/18 08:25:13;;;;;;;46.40;11.30;;;;;;;4.90;100.00;100129.06;5030836;28;20221;-61
2021/12/18 08:27:40;;;;;;;24.80;10.83;;;;;;;4.79;100.00;100119.56;5030592;28;20719;-62
2021/12/18 08:30:09;;;;;;;29.10;10.87;;;;;;;4.90;100.00;100144.47;5029861;28;20688;-61
2021/12/18 08:32:36;;;;;;;41.77;10.63;;;;;;;4.89;100.00;100132.47;5033129;28;20244;-62
2021/12/18 08:35:04;;;;;;;16.30;10.00;;;;;;;5.00;100.00;100132.50;5030770;28;20225;-61
2021/12/18 08:37:31;;;;;;;14.77;9.47;;;;;;;5.07;100.00;100135.13;5030669;28;20221;-61
2021/12/18 08:39:58;;;;;;;16.40;11.03;;;;;;;5.12;100.00;100135.13;5030202;28;20300;-62
2021/12/18 08:42:26;;;;;;;21.60;11.80;;;;;;;5.08;100.00;100133.38;5030555;28;20264;-62
2021/12/18 08:44:53;;;;;;;19.00;11.17;;;;;;;5.07;100.00;100131.69;5030691;28;20229;-61
2021/12/18 08:47:21;;;;;;;24.67;11.23;;;;;;;5.08;100.00;100144.53;5030852;28;20312;-62
2021/12/18 08:49:48;;;;;;;63.67;15.50;;;;;;;5.21;100.00;100142.88;5031129;28;20581;-62
2021/12/18 08:52:16;;;;;;;19.47;11.17;;;;;;;5.31;100.00;100141.19;5030817;28;20316;-62
2021/12/18 08:54:43;;;;;;;23.60;12.43;;;;;;;5.57;100.00;100147.25;5030313;28;20317;-62
2021/12/18 08:57:11;;;;;;;34.93;14.10;;;;;;;5.65;100.00;100127.50;5030736;28;20217;-62
2021/12/18 08:59:38;;;;;;;19.87;12.53;;;;;;;5.90;100.00;100149.03;5030017;28;20672;-62
2021/12/18 09:02:06;;;;;;;54.97;14.77;;;;;;;5.83;100.00;100126.66;5040669;28;20228;-62
2021/12/18 09:04:33;;;;;;;97.13;18.13;;;;;;;6.02;100.00;100140.44;5050922;28;20220;-61
2021/12/18 09:07:00;;;;;;;22.93;14.03;;;;;;;6.09;100.00;100161.06;5050439;28;20224;-61
2021/12/18 09:09:28;;;;;;;30.33;15.63;;;;;;;5.98;100.00;100149.88;5050485;28;20312;-61
2021/12/18 09:11:55;;;;;;;21.33;15.60;;;;;;;6.01;100.00;100142.16;5050780;28;20725;-61
2021/12/18 09:14:22;;;;;;;23.47;14.03;;;;;;;5.94;100.00;100131.84;5049771;28;20227;-61
2021/12/18 09:16:50;;;;;;;21.33;12.87;;;;;;;6.13;100.00;100149.88;5050516;28;20307;-56
2021/12/18 09:19:17;;;;;;;31.27;12.70;;;;;;;6.10;100.00;100147.28;5033108;28;20239;-58
2021/12/18 09:21:44;;;;;;;31.83;14.03;;;;;;;6.03;100.00;100144.72;5010883;28;20224;-56
2021/12/18 09:24:11;;;;;;;45.53;14.67;;;;;;;5.99;100.00;100146.44;5010953;28;20228;-56
2021/12/18 09:26:39;;;;;;;30.23;14.37;;;;;;;6.04;100.00;100146.44;5010894;28;20317;-61
2021/12/18 09:29:06;;;;;;;19.23;11.80;;;;;;;6.12;100.00;100140.41;5012481;28;20728;-61
2021/12/18 09:31:33;;;;;;;17.33;10.57;;;;;;;6.16;100.00;100136.13;5016108;28;20717;-62
2021/12/18 09:34:00;;;;;;;20.00;11.60;;;;;;;6.22;100.00;100135.25;5030103;28;20232;-57
2021/12/18 09:36:28;;;;;;;35.40;11.37;;;;;;;6.18;100.00;100142.16;5030181;28;20314;-56
2021/12/18 09:38:55;;;;;;;19.13;11.23;;;;;;;6.26;100.00;100130.09;5029547;28;20256;-57
2021/12/18 09:41:22;;;;;;;24.77;11.77;;;;;;;6.52;100.00;100140.38;5029361;28;20227;-57
2021/12/18 09:43:52;;;;;;;34.63;11.60;;;;;;;6.61;100.00;100127.44;5028928;28;20221;-57
2021/12/18 09:46:19;;;;;;;21.80;12.37;;;;;;;6.85;100.00;100149.72;5030295;28;20700;-56
2021/12/18 09:48:46;;;;;;;20.57;12.17;;;;;;;6.84;100.00;100142.84;5029904;28;20240;-56
2021/12/18 09:51:22;;;;;;;19.03;11.33;;;;;;;6.83;100.00;100141.97;5030145;28;20308;-61
2021/12/18 09:53:51;;;;;;;18.23;12.20;;;;;;;6.83;100.00;100147.16;5029044;28;20212;-62
2021/12/18 09:56:18;;;;;;;16.43;11.67;;;;;;;6.88;100.00;100141.97;5029507;28;20251;-62
2021/12/18 09:58:45;;;;;;;15.43;11.10;;;;;;;6.74;100.00;100123.09;5029151;28;20683;-62
2021/12/18 10:01:14;;;;;;;15.43;11.93;;;;;;;6.73;100.00;100142.03;5029946;28;20194;-62
2021/12/18 10:03:46;;;;;;;16.53;12.60;;;;;;;6.74;100.00;100136.00;5029777;28;20311;-62
2021/12/18 10:06:36;;;;;;;21.00;13.27;;;;;;;6.73;100.00;100101.59;5014145;28;20225;-56
2021/12/18 10:09:05;;;;;;;13.73;11.30;;;;;;;6.96;100.00;100127.31;5020507;28;20225;-57
2021/12/18 10:11:32;;;;;;;16.20;11.33;;;;;;;7.00;100.00;100136.75;5028885;28;20281;-56
2021/12/18 10:14:02;;;;;;;15.83;11.03;;;;;;;7.17;100.00;100139.25;5029099;28;20193;-58
2021/12/18 10:16:31;;;;;;;17.30;12.37;;;;;;;7.33;100.00;100137.47;5029374;28;20194;-56
2021/12/18 10:19:00;;;;;;;22.70;13.67;;;;;;;7.42;100.00;100142.56;5029170;28;20202;-56
2021/12/18 10:21:29;;;;;;;46.90;10.60;;;;;;;7.44;100.00;100135.66;5029322;28;20197;-56
2021/12/18 10:23:58;;;;;;;42.63;10.10;;;;;;;7.44;100.00;100139.13;5029082;28;20217;-56
2021/12/18 10:26:37;;;;;;;278.07;30.13;;;;;;;7.49;100.00;100142.50;5029137;28;20198;-56
2021/12/18 10:29:07;;;;;;;62.63;13.27;;;;;;;7.46;100.00;100146.81;5026680;28;20303;-55
2021/12/18 10:31:44;;;;;;;18.63;8.93;;;;;;;7.05;100.00;100139.31;5029745;28;20200;-56
2021/12/18 10:34:16;;;;;;;48.87;11.23;;;;;;;6.95;100.00;100145.38;5029600;28;20207;-56
2021/12/18 10:36:43;;;;;;;302.43;24.80;;;;;;;6.86;100.00;100141.97;5029551;28;20198;-55
2021/12/18 10:39:19;;;;;;;88.97;13.57;;;;;;;6.87;100.00;100142.84;5026425;28;20201;-56
2021/12/18 10:41:45;;;;;;;43.90;10.93;;;;;;;6.95;100.00;100143.66;5013502;28;20207;-56
2021/12/18 10:44:14;;;;;;;207.43;34.00;;;;;;;6.68;100.00;100141.16;5024836;28;20197;-64
2021/12/18 10:46:45;;;;;;;45.87;11.40;;;;;;;6.69;100.00;100137.72;5029095;28;20313;-63
2021/12/18 10:49:15;;;;;;;58.50;10.53;;;;;;;6.69;100.00;100133.44;5009351;28;20236;-63
2021/12/18 10:51:43;;;;;;;57.43;9.97;;;;;;;6.62;100.00;100131.75;5012186;28;20607;-63
2021/12/18 10:54:15;;;;;;;46.57;10.70;;;;;;;6.63;100.00;100135.19;5013272;28;20289;-56
2021/12/18 10:56:45;;;;;;;201.70;20.33;;;;;;;6.62;100.00;100136.91;5013245;28;20205;-56
2021/12/18 10:59:23;;;;;;;67.17;11.83;;;;;;;6.56;100.00;100131.75;5013263;28;20657;-56
2021/12/18 11:01:54;;;;;;;80.40;12.23;;;;;;;6.36;100.00;100138.66;5013140;28;20597;-57
2021/12/18 11:04:25;;;;;;;9.30;6.40;;;;;;;6.23;100.00;100137.81;5013494;28;20280;-57
2021/12/18 11:06:54;;;;;;;9.30;8.40;;;;;;;6.01;100.00;100136.13;5013156;28;20205;-55
2021/12/18 11:09:29;;;;;;;8.00;6.60;;;;;;;5.90;100.00;100140.44;5013341;28;20705;-55
2021/12/18 11:14:45;;;;;;;38.13;7.03;;;;;;;5.51;100.00;100139.53;5013032;28;20700;-66
2021/12/18 11:17:15;;;;;;;66.97;9.33;;;;;;;5.50;100.00;100127.50;5012841;28;20214;-55
2021/12/18 11:19:43;;;;;;;40.37;10.03;;;;;;;5.41;100.00;100127.50;5023120;28;20300;-55
2021/12/18 11:22:13;;;;;;;30.20;7.77;;;;;;;5.36;100.00;100130.03;5022413;28;20311;-57
2021/12/18 11:24:44;;;;;;;12.13;7.77;;;;;;;5.24;100.00;100100.84;5012611;28;20214;-62
2021/12/18 11:27:12;;;;;;;21.73;7.83;;;;;;;5.28;100.00;100115.44;5012878;28;20205;-56
2021/12/18 11:29:44;;;;;;;40.53;8.63;;;;;;;5.27;100.00;100118.88;5012754;28;20217;-56
2021/12/18 11:32:15;;;;;;;149.77;14.43;;;;;;;5.36;100.00;100119.75;5012761;28;20230;-60
2021/12/18 11:34:43;;;;;;;21.13;6.50;;;;;;;5.19;100.00;100120.59;5012024;28;20230;-56
2021/12/18 11:37:12;;;;;;;8.93;5.63;;;;;;;4.92;100.00;100119.63;5015947;28;20231;-57
2021/12/18 11:39:40;;;;;;;51.90;8.30;;;;;;;4.81;100.00;100093.00;5052211;28;20223;-58
2021/12/18 11:42:08;;;;;;;42.17;7.83;;;;;;;5.04;100.00;100111.09;5052365;28;20673;-56
2021/12/18 11:44:39;;;;;;;11.70;7.60;;;;;;;5.00;100.00;100117.06;5042729;28;20771;-56
2021/12/18 11:47:32;;;;;;;12.00;7.87;;;;;;;5.05;100.00;100118.81;5030554;28;20574;-57
2021/12/18 11:50:02;;;;;;;13.93;9.13;;;;;;;5.07;100.00;100116.25;5015178;28;20229;-57
2021/12/18 11:52:31;;;;;;;10.17;7.90;;;;;;;4.98;100.00;100111.91;5031967;28;20222;-56
2021/12/18 11:55:00;;;;;;;10.40;7.33;;;;;;;4.79;100.00;100117.88;5031701;28;20259;-57